New Haven, Ohio
Current Conditions -  °F | °C
As of 12:52 AM on Sunday 26 Oct 2014 (Local Time) from KMFD Reporting Station
Clear Clear  
Wind Chill: 51°   Ceiling: Unl
Heat Index: 51°   Visibility: 10mi
Dew Point: 33°   Wind: 8mph
Humidity: 50%   Direction: 270°W
Pressure: 29.85"   Gusts: NA
Location:  41.03°N, 82.68°W
Report Text: KMFD 260452Z 27007KT 10SM CLR 11/01 A2985 RMK AO2 SLP107 T01060006 402170083
Loading
Personal Weather Stations






























Interactive Weather Map
Tropical Storm Tracking
New forecast layout! Learn more

10-Day Weather Forecast

Advertisements
Track Severe Weather on mobile